createdAt,value
2023-02-25T00:00:31.497Z,101860.63
2023-02-25T00:03:36.667Z,101846.94
2023-02-25T00:06:40.717Z,101856.44
2023-02-25T00:09:45.122Z,101861.31
2023-02-25T00:12:49.493Z,101868.31
2023-02-25T00:15:53.850Z,101865.69
2023-02-25T00:18:58.998Z,101868.22
2023-02-25T00:22:02.858Z,101868.50
2023-02-25T00:25:07.832Z,101867.25
2023-02-25T00:28:12.212Z,101868.91
2023-02-25T00:31:43.293Z,101865.44
2023-02-25T00:34:53.390Z,101877.03
2023-02-25T00:38:13.700Z,101865.94
2023-02-25T00:41:23.224Z,101863.13
2023-02-25T00:44:27.546Z,101817.19
2023-02-25T00:47:32.382Z,101841.28
2023-02-25T00:50:40.452Z,101866.28
2023-02-25T00:53:45.944Z,101858.66
2023-02-25T00:56:50.287Z,101856.44
2023-02-25T00:59:54.191Z,101853.84
2023-02-25T01:02:59.963Z,101846.19
2023-02-25T01:06:04.449Z,101853.69
2023-02-25T01:09:14.842Z,101867.13
2023-02-25T01:12:19.215Z,101841.38
2023-02-25T01:15:23.265Z,101836.03
2023-02-25T01:18:28.366Z,101860.63
2023-02-25T01:21:36.923Z,101841.53
2023-02-25T01:24:41.209Z,101858.25
2023-02-25T01:27:47.695Z,101797.16
2023-02-25T01:30:52.104Z,101807.03
2023-02-25T01:34:04.132Z,101836.94
2023-02-25T01:37:17.973Z,101724.19
2023-02-25T01:40:27.790Z,101846.63
2023-02-25T01:43:32.344Z,101852.66
2023-02-25T01:46:38.347Z,101842.56
2023-02-25T01:49:47.419Z,101843.94
2023-02-25T01:52:52.459Z,101851.22
2023-02-25T01:55:57.761Z,101854.66
2023-02-25T01:59:02.610Z,101840.78
2023-02-25T02:02:09.406Z,101858.41
2023-02-25T02:05:14.200Z,101838.25
2023-02-25T02:08:19.096Z,101857.59
2023-02-25T02:11:23.466Z,101866.78
2023-02-25T02:14:35.607Z,101852.53
2023-02-25T02:18:00.561Z,101850.97
2023-02-25T02:21:18.752Z,101847.44
2023-02-25T02:24:33.822Z,101842.53
2023-02-25T02:28:03.216Z,101818.66
2023-02-25T02:31:10.530Z,101836.25
2023-02-25T02:34:41.632Z,101852.75
2023-02-25T02:37:56.629Z,101847.16
2023-02-25T02:41:37.745Z,101836.38
2023-02-25T02:44:57.179Z,101845.44
2023-02-25T02:48:37.599Z,101820.72
2023-02-25T02:51:50.973Z,101831.66
2023-02-25T02:55:03.414Z,101830.56
2023-02-25T02:58:14.435Z,101823.75
2023-02-25T03:01:28.150Z,101816.66
2023-02-25T03:04:36.916Z,101810.09
2023-02-25T03:07:52.330Z,101807.53
2023-02-25T03:10:56.871Z,101795.19
2023-02-25T03:14:01.664Z,101789.66
2023-02-25T03:17:13.203Z,101790.56
2023-02-25T03:20:25.335Z,101786.69
2023-02-25T03:23:33.610Z,101787.03
2023-02-25T03:26:39.505Z,101771.91
2023-02-25T03:29:44.084Z,101766.22
2023-02-25T03:33:00.635Z,101730.63
2023-02-25T03:36:14.218Z,101766.06
2023-02-25T03:39:22.043Z,101754.03
2023-02-25T03:42:36.213Z,101744.50
2023-02-25T03:45:46.277Z,101742.47
2023-02-25T03:48:53.703Z,101722.69
2023-02-25T03:52:01.271Z,101589.31
2023-02-25T03:55:07.275Z,101713.28
2023-02-25T03:58:11.935Z,101710.66
2023-02-25T04:01:31.488Z,101708.13
2023-02-25T04:04:36.218Z,101697.00
2023-02-25T04:07:41.042Z,101698.63
2023-02-25T04:10:45.629Z,101697.06
2023-02-25T04:13:51.561Z,101665.38
2023-02-25T04:16:56.764Z,101685.06
2023-02-25T04:20:01.212Z,101680.31
2023-02-25T04:23:06.913Z,101672.06
2023-02-25T04:26:11.299Z,101618.25
2023-02-25T04:29:16.330Z,101656.28
2023-02-25T04:32:20.601Z,101652.66
2023-02-25T04:35:25.659Z,101640.47
2023-02-25T04:38:30.169Z,101637.34
2023-02-25T04:41:36.975Z,101636.00
2023-02-25T04:44:51.485Z,101641.81
2023-02-25T04:48:00.173Z,101633.88
2023-02-25T04:51:05.017Z,101638.78
2023-02-25T04:54:09.635Z,101636.13
2023-02-25T04:57:14.051Z,101610.47
2023-02-25T05:00:21.594Z,101629.84
2023-02-25T05:03:26.596Z,101633.69
2023-02-25T05:06:31.540Z,101627.50
2023-02-25T05:09:36.031Z,101571.38
2023-02-25T05:12:40.401Z,101630.19
2023-02-25T05:15:45.246Z,101625.97
2023-02-25T05:18:50.384Z,101616.41
2023-02-25T05:21:55.682Z,101629.47
2023-02-25T05:25:00.037Z,101631.53
2023-02-25T05:28:07.296Z,101620.19
2023-02-25T05:31:13.708Z,101630.03
2023-02-25T05:34:18.997Z,101628.00
2023-02-25T05:37:25.086Z,101610.50
2023-02-25T05:40:29.402Z,101616.44
2023-02-25T05:43:34.801Z,101626.97
2023-02-25T05:46:39.478Z,101604.47
2023-02-25T05:49:44.473Z,101615.78
2023-02-25T05:52:49.126Z,101575.25
2023-02-25T05:55:53.723Z,101621.19
2023-02-25T05:58:58.366Z,101600.66
2023-02-25T06:02:02.586Z,101603.38
2023-02-25T06:05:07.651Z,101605.56
2023-02-25T06:08:12.992Z,101604.09
2023-02-25T06:11:25.880Z,101607.50
2023-02-25T06:14:30.179Z,101595.78
2023-02-25T06:17:34.960Z,101605.78
2023-02-25T06:20:39.120Z,101599.69
2023-02-25T06:23:45.160Z,101501.25
2023-02-25T06:26:49.424Z,101592.00
2023-02-25T06:29:53.534Z,101577.97
2023-02-25T06:32:57.566Z,101590.28
2023-02-25T06:36:02.128Z,101586.97
2023-02-25T06:39:06.493Z,101586.72
2023-02-25T06:42:11.754Z,101540.16
2023-02-25T06:45:16.996Z,101586.75
2023-02-25T06:48:21.573Z,101543.78
2023-02-25T06:51:26.707Z,101594.31
2023-02-25T06:54:31.144Z,101589.81
2023-02-25T06:57:36.172Z,101593.38
2023-02-25T07:00:43.941Z,101584.34
2023-02-25T07:03:48.316Z,101586.44
2023-02-25T07:06:52.560Z,101584.59
2023-02-25T07:09:56.848Z,101560.56
2023-02-25T07:13:00.870Z,101578.66
2023-02-25T07:16:04.907Z,101583.34
2023-02-25T07:19:09.574Z,101576.66
2023-02-25T07:22:18.150Z,101577.59
2023-02-25T07:25:22.701Z,101571.56
2023-02-25T07:28:26.988Z,101550.09
2023-02-25T07:31:31.534Z,101579.69
2023-02-25T07:34:39.970Z,101572.06
2023-02-25T07:37:44.344Z,101575.38
2023-02-25T07:40:49.399Z,101562.91
2023-02-25T07:43:53.573Z,101559.25
2023-02-25T07:46:59.531Z,101556.91
2023-02-25T07:50:04.254Z,101550.44
2023-02-25T07:53:08.589Z,101536.88
2023-02-25T07:56:13.655Z,101555.94
2023-02-25T07:59:18.090Z,101560.97
2023-02-25T08:02:22.560Z,101537.81
2023-02-25T08:05:30.082Z,101561.13
2023-02-25T08:08:35.945Z,101559.28
2023-02-25T08:11:43.154Z,101535.31
2023-02-25T08:14:47.568Z,101560.44
2023-02-25T08:17:53.319Z,101562.91
2023-02-25T08:21:00.790Z,101563.59
2023-02-25T08:24:06.962Z,101562.94
2023-02-25T08:27:11.503Z,101530.88
2023-02-25T08:30:16.196Z,101532.13
2023-02-25T08:33:21.100Z,101551.34
2023-02-25T08:36:32.078Z,101550.84
2023-02-25T08:39:36.777Z,101555.97
2023-02-25T08:42:40.580Z,101561.53
2023-02-25T08:45:44.575Z,101555.50
2023-02-25T08:48:51.243Z,101563.50
2023-02-25T08:51:55.788Z,101529.84
2023-02-25T08:55:03.314Z,101559.28
2023-02-25T08:58:08.526Z,101527.16
2023-02-25T09:01:17.614Z,101568.44
2023-02-25T09:04:24.597Z,101581.16
2023-02-25T09:07:28.627Z,101583.28
2023-02-25T09:10:48.207Z,101586.13
2023-02-25T09:13:54.993Z,101576.41
2023-02-25T09:16:59.856Z,101567.69
2023-02-25T09:20:08.030Z,101592.88
2023-02-25T09:23:12.621Z,101588.84
2023-02-25T09:26:18.266Z,101586.44
2023-02-25T09:29:23.204Z,101596.59
2023-02-25T09:32:27.420Z,101594.16
2023-02-25T09:35:32.599Z,101588.28
2023-02-25T09:38:37.952Z,101605.19
2023-02-25T09:41:46.088Z,101605.56
2023-02-25T09:45:02.125Z,101605.97
2023-02-25T09:48:17.329Z,101624.69
2023-02-25T09:51:35.539Z,101621.22
2023-02-25T09:54:45.815Z,101621.09
2023-02-25T09:58:05.277Z,101622.69
2023-02-25T10:01:14.017Z,101625.72
2023-02-25T10:04:28.477Z,101621.72
2023-02-25T10:07:54.062Z,101589.06
2023-02-25T10:11:03.039Z,101628.44
2023-02-25T10:14:39.433Z,101626.13
2023-02-25T10:17:56.284Z,101617.19
2023-02-25T10:21:25.509Z,101611.16
2023-02-25T10:24:49.638Z,101565.63
2023-02-25T10:28:08.772Z,101589.00
2023-02-25T10:31:19.677Z,101611.16
2023-02-25T10:34:28.206Z,101554.38
2023-02-25T10:37:35.903Z,101596.47
2023-02-25T10:40:42.015Z,101598.19
2023-02-25T10:43:47.809Z,101608.66
2023-02-25T10:46:56.946Z,101607.28
2023-02-25T10:50:38.832Z,101606.03
2023-02-25T10:54:07.283Z,101599.78
2023-02-25T10:57:17.917Z,101594.22
2023-02-25T11:00:28.764Z,101608.59
2023-02-25T11:03:37.826Z,101609.03
2023-02-25T11:07:24.321Z,101316.03
2023-02-25T11:10:35.949Z,101614.19
2023-02-25T11:14:19.673Z,101608.47
2023-02-25T11:17:24.413Z,101601.78
2023-02-25T11:20:33.165Z,101614.72
2023-02-25T11:23:47.961Z,101580.25
2023-02-25T11:26:53.819Z,101619.38
2023-02-25T11:30:13.873Z,101593.44
2023-02-25T11:33:45.755Z,101622.53
2023-02-25T11:36:51.279Z,101632.63
2023-02-25T11:39:56.937Z,101639.75
2023-02-25T11:43:28.607Z,101591.69
2023-02-25T11:46:34.843Z,101622.84
2023-02-25T11:49:54.348Z,101636.03
2023-02-25T11:53:23.012Z,101639.16
2023-02-25T11:56:35.042Z,101636.22
2023-02-25T12:00:23.878Z,101639.75
2023-02-25T12:03:47.566Z,101636.91
2023-02-25T12:07:25.671Z,101643.53
2023-02-25T12:10:33.089Z,101638.91
2023-02-25T12:14:20.665Z,101634.09
2023-02-25T12:17:49.246Z,101646.63
2023-02-25T12:20:56.694Z,101644.88
2023-02-25T12:24:26.350Z,101636.31
2023-02-25T12:28:02.968Z,101647.78
2023-02-25T12:31:45.108Z,101652.25
2023-02-25T12:35:08.159Z,101660.75
2023-02-25T12:38:37.801Z,101658.66
2023-02-25T12:41:47.462Z,101659.91
2023-02-25T12:45:21.654Z,101636.56
2023-02-25T12:48:57.011Z,101675.19
2023-02-25T12:52:19.361Z,101661.66
2023-02-25T12:55:23.987Z,101675.78
2023-02-25T12:58:41.093Z,101670.25
2023-02-25T13:02:04.586Z,101680.03
2023-02-25T13:05:30.701Z,101681.16
2023-02-25T13:08:53.824Z,101675.50
2023-02-25T13:12:15.096Z,101638.97
2023-02-25T13:15:44.047Z,101695.53
2023-02-25T13:18:57.382Z,101694.97
2023-02-25T13:22:25.265Z,101692.94
2023-02-25T13:25:47.790Z,101696.22
2023-02-25T13:28:58.555Z,101695.97
2023-02-25T13:32:17.881Z,101690.09
2023-02-25T13:35:43.489Z,101707.59
2023-02-25T13:39:02.410Z,101696.47
2023-02-25T13:42:12.119Z,101694.28
2023-02-25T13:45:40.601Z,101693.91
2023-02-25T13:48:59.875Z,101691.44
2023-02-25T13:52:39.004Z,101696.06
2023-02-25T13:56:24.818Z,101719.09
2023-02-25T13:59:56.927Z,101717.03
2023-02-25T14:03:22.458Z,101718.03
2023-02-25T14:06:48.399Z,101717.19
2023-02-25T14:10:16.956Z,101705.16
2023-02-25T14:13:42.586Z,101733.41
2023-02-25T14:16:57.514Z,101732.06
2023-02-25T14:20:23.316Z,101740.44
2023-02-25T14:23:42.612Z,101739.13
2023-02-25T14:27:21.577Z,101746.75
2023-02-25T14:30:25.930Z,101753.03
2023-02-25T14:33:38.429Z,101749.22
2023-02-25T14:36:48.446Z,101757.50
2023-02-25T14:40:27.058Z,101754.28
2023-02-25T14:43:36.501Z,101749.88
2023-02-25T14:46:44.169Z,101758.25
2023-02-25T14:50:00.888Z,101766.97
2023-02-25T14:53:27.729Z,101762.50
2023-02-25T14:56:58.651Z,101764.47
2023-02-25T15:00:24.398Z,101777.69
2023-02-25T15:03:31.994Z,101794.53
2023-02-25T15:06:54.301Z,101793.34
2023-02-25T15:10:19.877Z,101796.78
2023-02-25T15:13:55.372Z,101797.66
2023-02-25T15:17:47.283Z,101798.47
2023-02-25T15:20:51.823Z,101802.06
2023-02-25T15:23:56.242Z,101808.09
2023-02-25T15:27:01.428Z,101816.34
2023-02-25T15:30:09.336Z,101806.63
2023-02-25T15:33:27.464Z,101811.16
2023-02-25T15:36:50.750Z,101814.13
2023-02-25T15:39:58.216Z,101817.84
2023-02-25T15:43:27.267Z,101821.69
2023-02-25T15:46:37.569Z,101819.31
2023-02-25T15:49:47.562Z,101800.59
2023-02-25T15:52:58.534Z,101832.22
2023-02-25T15:56:05.803Z,101829.50
2023-02-25T15:59:10.316Z,101831.59
2023-02-25T16:02:34.249Z,101832.19
2023-02-25T16:05:48.163Z,101835.03
2023-02-25T16:09:11.656Z,101838.00
2023-02-25T16:12:17.543Z,101832.66
2023-02-25T16:15:39.665Z,101844.19
2023-02-25T16:18:51.044Z,101865.28
2023-02-25T16:22:09.077Z,101837.56
2023-02-25T16:25:19.971Z,101871.56
2023-02-25T16:29:07.939Z,101878.94
2023-02-25T16:32:39.413Z,101890.03
2023-02-25T16:36:06.899Z,101908.63
2023-02-25T16:39:24.559Z,101884.75
2023-02-25T16:42:34.080Z,101922.72
2023-02-25T16:46:01.765Z,101921.88
2023-02-25T16:49:24.713Z,101922.34
2023-02-25T16:52:36.976Z,101925.31
2023-02-25T16:55:42.106Z,101924.00
2023-02-25T16:59:04.694Z,101929.69
2023-02-25T17:02:17.999Z,101948.13
2023-02-25T17:05:37.332Z,101937.94
2023-02-25T17:08:47.664Z,101951.44
2023-02-25T17:11:56.891Z,101961.31
2023-02-25T17:15:05.344Z,101925.00
2023-02-25T17:18:56.800Z,101964.63
2023-02-25T17:22:02.376Z,101953.97
2023-02-25T17:25:16.823Z,101966.28
2023-02-25T17:28:28.005Z,101963.13
2023-02-25T17:31:32.286Z,101966.59
2023-02-25T17:34:37.826Z,101971.50
2023-02-25T17:38:16.387Z,101983.19
2023-02-25T17:41:28.075Z,101970.88
2023-02-25T17:44:43.304Z,101988.91
2023-02-25T17:47:47.994Z,101966.38
2023-02-25T17:51:08.630Z,101974.41
2023-02-25T17:54:21.034Z,101970.88
2023-02-25T17:57:29.005Z,101992.94
2023-02-25T18:00:37.048Z,102002.91
2023-02-25T18:03:47.375Z,101992.44
2023-02-25T18:06:52.235Z,101988.69
2023-02-25T18:09:58.142Z,102007.06
2023-02-25T18:13:05.612Z,101977.75
2023-02-25T18:16:42.500Z,102008.28
2023-02-25T18:19:47.132Z,102026.03
2023-02-25T18:22:51.455Z,102035.31
2023-02-25T18:26:31.618Z,102039.81
2023-02-25T18:29:35.978Z,102051.50
2023-02-25T18:32:40.399Z,102023.75
2023-02-25T18:35:47.550Z,102048.53
2023-02-25T18:38:53.968Z,102042.47
2023-02-25T18:45:24.761Z,102052.03
2023-02-25T18:48:28.641Z,102059.38
2023-02-25T18:51:33.334Z,102058.03
2023-02-25T18:54:37.618Z,102062.75
2023-02-25T18:57:41.993Z,102072.03
2023-02-25T19:00:49.253Z,102079.81
2023-02-25T19:04:00.255Z,102069.88
2023-02-25T19:07:11.735Z,102081.28
2023-02-25T19:10:27.608Z,102093.69
2023-02-25T19:13:36.364Z,102105.16
2023-02-25T19:16:41.189Z,102109.28
2023-02-25T19:19:47.201Z,102122.22
2023-02-25T19:22:54.060Z,102117.03
2023-02-25T19:26:01.617Z,102127.09
2023-02-25T19:29:06.320Z,102069.00
2023-02-25T19:32:10.714Z,102134.72
2023-02-25T19:35:15.051Z,102141.81
2023-02-25T19:38:20.806Z,102139.09
2023-02-25T19:41:25.369Z,102145.13
2023-02-25T19:44:29.639Z,102148.50
2023-02-25T19:47:44.077Z,102149.78
2023-02-25T19:50:48.310Z,102162.38
2023-02-25T19:53:52.962Z,102140.84
2023-02-25T19:56:57.240Z,102169.31
2023-02-25T20:00:01.571Z,102179.03
2023-02-25T20:03:16.445Z,102189.00
2023-02-25T20:06:23.881Z,102191.47
2023-02-25T20:09:28.380Z,102187.16
2023-02-25T20:12:32.496Z,102184.59
2023-02-25T20:15:36.228Z,102182.69
2023-02-25T20:18:41.588Z,102167.63
2023-02-25T20:21:45.873Z,102190.84
2023-02-25T20:24:50.327Z,102191.75
2023-02-25T20:27:54.699Z,102193.03
2023-02-25T20:31:07.412Z,102194.72
2023-02-25T20:34:18.738Z,102214.03
2023-02-25T20:37:30.302Z,102206.50
2023-02-25T20:40:34.645Z,102205.50
2023-02-25T20:43:39.251Z,102219.31
2023-02-25T20:46:44.984Z,102220.41
2023-02-25T20:49:50.190Z,102235.22
2023-02-25T20:52:55.566Z,102216.75
2023-02-25T20:56:00.520Z,102222.25
2023-02-25T20:59:05.882Z,102244.25
2023-02-25T21:02:11.055Z,102242.53
2023-02-25T21:05:15.484Z,102224.00
2023-02-25T21:08:20.100Z,102243.75
2023-02-25T21:11:25.666Z,102248.38
2023-02-25T21:14:32.007Z,102243.63
2023-02-25T21:17:36.288Z,102249.47
2023-02-25T21:20:40.877Z,102229.81
2023-02-25T21:23:45.671Z,102248.75
2023-02-25T21:26:50.080Z,102213.72
2023-02-25T21:29:54.089Z,102258.63
2023-02-25T21:32:59.500Z,102206.78
2023-02-25T21:36:04.487Z,102243.75
2023-02-25T21:39:10.087Z,102256.03
2023-02-25T21:42:14.021Z,102258.38
2023-02-25T21:45:18.559Z,102257.09
2023-02-25T21:48:24.910Z,102251.16
2023-02-25T21:51:30.802Z,102271.97
2023-02-25T21:54:35.571Z,102272.31
2023-02-25T21:57:40.449Z,102280.16
2023-02-25T22:00:49.319Z,102276.94
2023-02-25T22:03:57.117Z,102292.66
2023-02-25T22:07:01.012Z,102288.25
2023-02-25T22:10:05.311Z,102278.47
2023-02-25T22:13:10.047Z,102299.63
2023-02-25T22:16:15.905Z,102280.47
2023-02-25T22:19:20.113Z,102309.22
2023-02-25T22:22:24.329Z,102311.97
2023-02-25T22:25:28.953Z,102321.53
2023-02-25T22:28:34.007Z,102329.59
2023-02-25T22:31:38.799Z,102348.06
2023-02-25T22:34:43.215Z,102350.09
2023-02-25T22:37:47.668Z,102356.72
2023-02-25T22:40:52.358Z,102368.84
2023-02-25T22:43:57.982Z,102350.94
2023-02-25T22:47:02.587Z,102354.16
2023-02-25T22:50:07.641Z,102380.25
2023-02-25T22:53:12.315Z,102376.25
2023-02-25T22:56:16.949Z,102390.41
2023-02-25T22:59:21.194Z,102383.81
2023-02-25T23:02:28.022Z,102342.16
2023-02-25T23:05:33.083Z,102383.94
2023-02-25T23:08:37.663Z,102386.44
2023-02-25T23:11:44.505Z,102384.56
2023-02-25T23:14:49.168Z,102380.34
2023-02-25T23:17:53.666Z,102375.84
2023-02-25T23:20:57.796Z,102387.97
2023-02-25T23:24:05.441Z,102401.81
2023-02-25T23:27:09.813Z,102377.34
2023-02-25T23:30:14.656Z,102387.78
2023-02-25T23:33:18.830Z,102393.47
2023-02-25T23:36:23.990Z,102401.44
2023-02-25T23:39:29.065Z,102410.41
2023-02-25T23:42:33.161Z,102404.34
2023-02-25T23:45:36.998Z,102414.69
2023-02-25T23:48:40.993Z,102422.28
2023-02-25T23:51:47.141Z,102397.00
2023-02-25T23:54:51.984Z,102421.03
2023-02-25T23:57:56.926Z,102426.25
